createdAt,value
2023-10-05T01:21:58.747Z,88.17
2023-10-05T01:37:00.692Z,42.20
2023-10-05T01:52:02.613Z,40.63
2023-10-05T02:07:04.780Z,36.80
2023-10-05T02:22:13.234Z,37.60
2023-10-05T02:37:21.041Z,34.40
2023-10-05T02:52:23.349Z,39.00
2023-10-05T03:07:27.172Z,34.37
2023-10-05T03:22:29.431Z,37.50
2023-10-05T03:37:33.327Z,38.03
2023-10-05T03:52:35.719Z,32.80
2023-10-05T04:07:37.877Z,36.93
2023-10-05T04:22:39.786Z,37.40
2023-10-05T04:37:41.586Z,33.07
2023-10-05T04:52:46.634Z,30.47
2023-10-05T05:07:50.109Z,31.43
2023-10-05T05:22:51.786Z,29.30
2023-10-05T05:37:57.453Z,31.60
2023-10-05T05:52:59.862Z,30.70
2023-10-05T06:08:02.810Z,32.57
2023-10-05T06:23:04.704Z,34.87
2023-10-05T06:38:06.365Z,39.60
2023-10-05T06:53:12.419Z,36.63
2023-10-05T07:08:15.516Z,38.23
2023-10-05T07:38:19.006Z,44.07
2023-10-05T07:53:21.040Z,42.83
2023-10-05T08:08:25.184Z,44.30
2023-10-05T08:23:27.040Z,50.70
2023-10-05T08:38:28.748Z,38.50
2023-10-05T08:53:30.467Z,47.13
2023-10-05T09:08:42.622Z,51.53
2023-10-05T09:23:45.512Z,52.80
2023-10-05T09:38:48.160Z,51.70
2023-10-05T09:53:53.891Z,47.47
2023-10-05T10:09:11.040Z,57.63
2023-10-05T10:24:19.301Z,54.93
2023-10-05T10:54:28.381Z,57.63
2023-10-05T11:09:39.082Z,59.00
2023-10-05T11:25:16.005Z,60.37
2023-10-05T11:40:25.073Z,60.33
2023-10-05T11:55:27.532Z,58.83
2023-10-05T12:10:29.314Z,65.23
2023-10-05T12:25:31.030Z,63.10
2023-10-05T12:40:35.885Z,67.17
2023-10-05T12:55:39.139Z,61.83
2023-10-05T13:10:42.062Z,62.63
2023-10-05T13:25:45.168Z,57.27
2023-10-05T13:41:03.003Z,67.07
2023-10-05T13:56:06.381Z,57.57
2023-10-05T14:11:11.042Z,64.60
2023-10-05T14:26:12.795Z,60.50
2023-10-05T14:41:15.386Z,63.20
2023-10-05T14:56:17.685Z,62.37
2023-10-05T15:11:19.545Z,60.67
2023-10-05T15:41:23.658Z,55.07
2023-10-05T15:56:28.353Z,54.77
2023-10-05T16:11:30.088Z,54.40
2023-10-05T16:26:31.759Z,52.50
2023-10-05T16:41:33.512Z,51.60
2023-10-05T16:56:48.065Z,52.67
2023-10-05T17:11:56.072Z,51.37
2023-10-05T17:26:57.775Z,46.63
2023-10-05T17:41:59.686Z,43.87
2023-10-05T17:57:02.342Z,44.73
2023-10-05T18:12:09.014Z,41.23
2023-10-05T18:27:12.339Z,47.03
2023-10-05T18:42:15.758Z,41.03
2023-10-05T18:57:18.162Z,39.97
2023-10-05T19:12:20.267Z,41.63
2023-10-05T19:27:22.224Z,41.70
2023-10-05T19:42:24.064Z,39.47
2023-10-05T19:57:26.129Z,39.63
2023-10-05T20:12:27.934Z,40.20
2023-10-05T20:27:29.689Z,31.47
2023-10-05T20:42:32.216Z,36.90
2023-10-05T20:57:33.989Z,36.27
2023-10-05T21:12:36.330Z,37.10
2023-10-05T21:27:38.356Z,35.60
2023-10-05T21:42:40.024Z,38.90
2023-10-05T21:57:41.788Z,44.20
2023-10-05T22:12:43.438Z,42.23
2023-10-05T22:27:45.137Z,37.00
2023-10-05T22:42:47.037Z,38.97
2023-10-05T22:57:48.779Z,36.23
2023-10-05T23:12:50.478Z,33.80
2023-10-05T23:27:53.316Z,35.93
2023-10-05T23:42:55.630Z,38.60
2023-10-05T23:57:57.351Z,34.67
